Time;durP1;ratioP1;P1;durP2;ratioP2;P2;SDS_P1;SDS_P2;PMS_P1;PMS_P2;Temp;Humidity;BMP_temperature;BMP_pressure;BME280_temperature;BME280_humidity;BME280_pressure;Samples;Min_cycle;Max_cycle;Signal;HPM_P1;HPM_P2
2019/11/07 00:00:13;;;;;;;4.799999;4.2;;;;;;;4.4;99.48828;94167.17;;;;
2019/11/07 00:01:14;;;;;;;4.799999;4.2;;;;;;;4.4;99.48828;94167.17;;;;
2019/11/07 00:02:15;;;;;;;4.799999;4.2;;;;;;;4.4;99.48828;94167.17;;;;
2019/11/07 00:03:16;;;;;;;4.799999;4.2;;;;;;;4.4;99.48828;94167.17;;;;
2019/11/07 00:04:17;;;;;;;4.799999;4.2;;;;;;;4.4;99.48828;94167.17;;;;
2019/11/07 00:05:19;;;;;;;4.799999;4.2;;;;;;;4.4;99.48828;94167.17;;;;
2019/11/07 00:06:20;;;;;;;4.799999;4.2;;;;;;;4.4;99.48828;94167.17;;;;
2019/11/07 00:07:21;;;;;;;5.4;4.25;;;;;;;4.12;99.96973;94166.79;;;;
2019/11/07 00:08:22;;;;;;;5.4;4.25;;;;;;;4.12;99.96973;94166.79;;;;
2019/11/07 00:09:23;;;;;;;5.4;4.25;;;;;;;4.12;99.96973;94166.79;;;;
2019/11/07 00:10:24;;;;;;;5.4;4.25;;;;;;;4.12;99.96973;94166.79;;;;
2019/11/07 00:11:25;;;;;;;5.4;4.25;;;;;;;4.12;99.96973;94166.79;;;;
2019/11/07 00:12:26;;;;;;;5.4;4.25;;;;;;;4.12;99.96973;94166.79;;;;
2019/11/07 00:13:28;;;;;;;5.4;4.25;;;;;;;4.12;99.96973;94166.79;;;;
2019/11/07 00:14:29;;;;;;;5.4;4.25;;;;;;;4.12;99.96973;94166.79;;;;
2019/11/07 00:15:30;;;;;;;5.4;4.25;;;;;;;4.12;99.96973;94166.79;;;;
2019/11/07 00:16:31;;;;;;;5.4;4.25;;;;;;;4.12;99.96973;94166.79;;;;
2019/11/07 00:17:32;;;;;;;5.4;4.25;;;;;;;4.12;99.96973;94166.79;;;;
2019/11/07 00:18:33;;;;;;;5.7;4.25;;;;;;;3.77;100;94151.59;;;;
2019/11/07 00:19:34;;;;;;;5.7;4.25;;;;;;;3.77;100;94151.59;;;;
2019/11/07 00:20:35;;;;;;;5.7;4.25;;;;;;;3.77;100;94151.59;;;;
2019/11/07 00:21:36;;;;;;;5.7;4.25;;;;;;;3.77;100;94151.59;;;;
2019/11/07 00:22:37;;;;;;;5.7;4.25;;;;;;;3.77;100;94151.59;;;;
2019/11/07 00:23:39;;;;;;;5.7;4.25;;;;;;;3.77;100;94151.59;;;;
2019/11/07 00:24:40;;;;;;;5.7;4.25;;;;;;;3.77;100;94151.59;;;;
2019/11/07 00:25:41;;;;;;;5.7;4.25;;;;;;;3.77;100;94151.59;;;;
2019/11/07 00:26:42;;;;;;;5.7;4.25;;;;;;;3.77;100;94151.59;;;;
2019/11/07 00:27:43;;;;;;;5.7;4.25;;;;;;;3.77;100;94151.59;;;;
2019/11/07 00:28:44;;;;;;;6.55;4.5;;;;;;;3.51;100;94145.62;;;;
2019/11/07 00:29:45;;;;;;;6.55;4.5;;;;;;;3.51;100;94145.62;;;;
2019/11/07 00:30:46;;;;;;;6.55;4.5;;;;;;;3.51;100;94145.62;;;;
2019/11/07 00:31:47;;;;;;;6.55;4.5;;;;;;;3.51;100;94145.62;;;;
2019/11/07 00:32:49;;;;;;;6.55;4.5;;;;;;;3.51;100;94145.62;;;;
2019/11/07 00:33:50;;;;;;;6.55;4.5;;;;;;;3.51;100;94145.62;;;;
2019/11/07 00:34:51;;;;;;;6.55;4.5;;;;;;;3.51;100;94145.62;;;;
2019/11/07 00:35:52;;;;;;;6.55;4.5;;;;;;;3.51;100;94145.62;;;;
2019/11/07 00:36:53;;;;;;;6.55;4.5;;;;;;;3.51;100;94145.62;;;;
2019/11/07 00:37:54;;;;;;;6.55;4.5;;;;;;;3.51;100;94145.62;;;;
2019/11/07 00:38:55;;;;;;;6.55;4.5;;;;;;;3.51;100;94145.62;;;;
2019/11/07 00:39:56;;;;;;;6.299999;4.4;;;;;;;3.21;100;94136.15;;;;
2019/11/07 00:40:57;;;;;;;6.299999;4.4;;;;;;;3.21;100;94136.15;;;;
2019/11/07 00:41:59;;;;;;;6.299999;4.4;;;;;;;3.21;100;94136.15;;;;
2019/11/07 00:43:00;;;;;;;6.299999;4.4;;;;;;;3.21;100;94136.15;;;;
2019/11/07 00:44:01;;;;;;;6.299999;4.4;;;;;;;3.21;100;94136.15;;;;
2019/11/07 00:45:02;;;;;;;6.299999;4.4;;;;;;;3.21;100;94136.15;;;;
2019/11/07 00:46:03;;;;;;;6.299999;4.4;;;;;;;3.21;100;94136.15;;;;
2019/11/07 00:47:05;;;;;;;6.299999;4.4;;;;;;;3.21;100;94136.15;;;;
2019/11/07 00:48:06;;;;;;;6.299999;4.4;;;;;;;3.21;100;94136.15;;;;
2019/11/07 00:49:07;;;;;;;6.299999;4.4;;;;;;;3.21;100;94136.15;;;;
2019/11/07 00:50:08;;;;;;;5.1;4.45;;;;;;;3.03;100;94138.26;;;;
2019/11/07 00:51:09;;;;;;;5.1;4.45;;;;;;;3.03;100;94138.26;;;;
2019/11/07 00:52:10;;;;;;;5.1;4.45;;;;;;;3.03;100;94138.26;;;;
2019/11/07 00:53:11;;;;;;;5.1;4.45;;;;;;;3.03;100;94138.26;;;;
2019/11/07 00:54:13;;;;;;;5.1;4.45;;;;;;;3.03;100;94138.26;;;;
2019/11/07 00:55:14;;;;;;;5.1;4.45;;;;;;;3.03;100;94138.26;;;;
2019/11/07 00:56:15;;;;;;;5.1;4.45;;;;;;;3.03;100;94138.26;;;;
2019/11/07 00:57:16;;;;;;;5.1;4.45;;;;;;;3.03;100;94138.26;;;;
2019/11/07 00:58:17;;;;;;;5.1;4.45;;;;;;;3.03;100;94138.26;;;;
2019/11/07 00:59:18;;;;;;;5.1;4.45;;;;;;;3.03;100;94138.26;;;;
2019/11/07 01:00:19;;;;;;;5.95;4.900001;;;;;;;2.87;100;94145.56;;;;
2019/11/07 01:01:20;;;;;;;5.95;4.900001;;;;;;;2.87;100;94145.56;;;;
2019/11/07 01:02:22;;;;;;;5.95;4.900001;;;;;;;2.87;100;94145.56;;;;
2019/11/07 01:03:23;;;;;;;5.95;4.900001;;;;;;;2.87;100;94145.56;;;;
2019/11/07 01:04:24;;;;;;;5.95;4.900001;;;;;;;2.87;100;94145.56;;;;
2019/11/07 01:05:25;;;;;;;5.95;4.900001;;;;;;;2.87;100;94145.56;;;;
2019/11/07 01:06:26;;;;;;;5.95;4.900001;;;;;;;2.87;100;94145.56;;;;
2019/11/07 01:07:27;;;;;;;5.95;4.900001;;;;;;;2.87;100;94145.56;;;;
2019/11/07 01:08:28;;;;;;;5.95;4.900001;;;;;;;2.87;100;94145.56;;;;
2019/11/07 01:09:29;;;;;;;5.95;4.900001;;;;;;;2.87;100;94145.56;;;;
2019/11/07 01:10:31;;;;;;;5.95;4.900001;;;;;;;2.87;100;94145.56;;;;
2019/11/07 01:11:32;;;;;;;6.4;4.75;;;;;;;2.78;100;94142.77;;;;
2019/11/07 01:12:33;;;;;;;6.4;4.75;;;;;;;2.78;100;94142.77;;;;
2019/11/07 01:13:46;;;;;;;6.4;4.75;;;;;;;2.78;100;94142.77;;;;
2019/11/07 01:14:48;;;;;;;6.4;4.75;;;;;;;2.78;100;94142.77;;;;
2019/11/07 01:15:56;;;;;;;6.4;4.75;;;;;;;2.78;100;94142.77;;;;
2019/11/07 01:17:05;;;;;;;6.4;4.75;;;;;;;2.78;100;94142.77;;;;
2019/11/07 01:18:07;;;;;;;6.4;4.75;;;;;;;2.78;100;94142.77;;;;
2019/11/07 01:19:12;;;;;;;6.4;4.75;;;;;;;2.78;100;94142.77;;;;
2019/11/07 01:20:14;;;;;;;6.4;4.75;;;;;;;2.78;100;94142.77;;;;
2019/11/07 01:21:15;;;;;;;6.4;4.75;;;;;;;2.78;100;94142.77;;;;
2019/11/07 01:22:16;;;;;;;6.4;4.75;;;;;;;2.78;100;94142.77;;;;
2019/11/07 01:23:17;;;;;;;6.4;4.75;;;;;;;2.78;100;94142.77;;;;
2019/11/07 01:24:19;;;;;;;6.4;4.75;;;;;;;2.78;100;94142.77;;;;
2019/11/07 01:25:20;;;;;;;6.4;4.75;;;;;;;2.78;100;94142.77;;;;
2019/11/07 01:26:21;;;;;;;6.4;4.75;;;;;;;2.78;100;94142.77;;;;
2019/11/07 01:27:22;;;;;;;6.4;4.75;;;;;;;2.78;100;94142.77;;;;
2019/11/07 01:28:23;;;;;;;6.4;4.75;;;;;;;2.78;100;94142.77;;;;
2019/11/07 01:29:24;;;;;;;6.4;4.75;;;;;;;2.78;100;94142.77;;;;
2019/11/07 01:30:25;;;;;;;6.4;4.75;;;;;;;2.78;100;94142.77;;;;
2019/11/07 01:31:26;;;;;;;6.4;4.75;;;;;;;2.78;100;94142.77;;;;
2019/11/07 01:32:27;;;;;;;5.349999;4.35;;;;;;;2.53;100;94126.34;;;;
2019/11/07 01:33:29;;;;;;;5.349999;4.35;;;;;;;2.53;100;94126.34;;;;
2019/11/07 01:34:30;;;;;;;5.349999;4.35;;;;;;;2.53;100;94126.34;;;;
2019/11/07 01:35:31;;;;;;;5.349999;4.35;;;;;;;2.53;100;94126.34;;;;
2019/11/07 01:36:32;;;;;;;5.349999;4.35;;;;;;;2.53;100;94126.34;;;;
2019/11/07 01:37:33;;;;;;;5.349999;4.35;;;;;;;2.53;100;94126.34;;;;
2019/11/07 01:38:34;;;;;;;5.349999;4.35;;;;;;;2.53;100;94126.34;;;;
2019/11/07 01:39:35;;;;;;;5.349999;4.35;;;;;;;2.53;100;94126.34;;;;
2019/11/07 01:40:37;;;;;;;5.349999;4.35;;;;;;;2.53;100;94126.34;;;;
2019/11/07 01:41:38;;;;;;;5.349999;4.35;;;;;;;2.53;100;94126.34;;;;
2019/11/07 01:42:39;;;;;;;5.349999;4.35;;;;;;;2.53;100;94126.34;;;;
2019/11/07 01:43:40;;;;;;;5.649999;4.55;;;;;;;2.58;100;94119.94;;;;
2019/11/07 01:44:41;;;;;;;5.649999;4.55;;;;;;;2.58;100;94119.94;;;;
2019/11/07 01:45:42;;;;;;;5.649999;4.55;;;;;;;2.58;100;94119.94;;;;
2019/11/07 01:46:43;;;;;;;5.649999;4.55;;;;;;;2.58;100;94119.94;;;;
2019/11/07 01:47:44;;;;;;;5.649999;4.55;;;;;;;2.58;100;94119.94;;;;
2019/11/07 01:48:45;;;;;;;5.649999;4.55;;;;;;;2.58;100;94119.94;;;;
2019/11/07 01:49:46;;;;;;;5.649999;4.55;;;;;;;2.58;100;94119.94;;;;
2019/11/07 01:50:48;;;;;;;5.649999;4.55;;;;;;;2.58;100;94119.94;;;;
2019/11/07 01:51:49;;;;;;;5.649999;4.55;;;;;;;2.58;100;94119.94;;;;
2019/11/07 01:52:50;;;;;;;5.649999;4.55;;;;;;;2.58;100;94119.94;;;;
2019/11/07 01:53:51;;;;;;;6.649999;5.199999;;;;;;;2.59;100;94107.36;;;;
2019/11/07 01:54:52;;;;;;;6.649999;5.199999;;;;;;;2.59;100;94107.36;;;;
2019/11/07 01:55:53;;;;;;;6.649999;5.199999;;;;;;;2.59;100;94107.36;;;;
2019/11/07 01:56:54;;;;;;;6.649999;5.199999;;;;;;;2.59;100;94107.36;;;;
2019/11/07 01:57:55;;;;;;;6.649999;5.199999;;;;;;;2.59;100;94107.36;;;;
2019/11/07 01:58:57;;;;;;;6.649999;5.199999;;;;;;;2.59;100;94107.36;;;;
2019/11/07 02:00:00;;;;;;;6.649999;5.199999;;;;;;;2.59;100;94107.36;;;;
2019/11/07 02:01:01;;;;;;;6.649999;5.199999;;;;;;;2.59;100;94107.36;;;;
2019/11/07 02:02:02;;;;;;;6.649999;5.199999;;;;;;;2.59;100;94107.36;;;;
2019/11/07 02:03:03;;;;;;;6.649999;5.199999;;;;;;;2.59;100;94107.36;;;;
2019/11/07 02:04:04;;;;;;;6.649999;5.199999;;;;;;;2.59;100;94107.36;;;;
2019/11/07 02:05:06;;;;;;;5.4;4.349999;;;;;;;2.61;100;94102.09;;;;
2019/11/07 02:06:07;;;;;;;5.4;4.349999;;;;;;;2.61;100;94102.09;;;;
2019/11/07 02:07:08;;;;;;;5.4;4.349999;;;;;;;2.61;100;94102.09;;;;
2019/11/07 02:08:09;;;;;;;5.4;4.349999;;;;;;;2.61;100;94102.09;;;;
2019/11/07 02:09:11;;;;;;;5.4;4.349999;;;;;;;2.61;100;94102.09;;;;
2019/11/07 02:10:12;;;;;;;5.4;4.349999;;;;;;;2.61;100;94102.09;;;;
2019/11/07 02:11:13;;;;;;;5.4;4.349999;;;;;;;2.61;100;94102.09;;;;
2019/11/07 02:12:15;;;;;;;5.4;4.349999;;;;;;;2.61;100;94102.09;;;;
2019/11/07 02:13:16;;;;;;;5.4;4.349999;;;;;;;2.61;100;94102.09;;;;
2019/11/07 02:14:17;;;;;;;5.4;4.349999;;;;;;;2.61;100;94102.09;;;;
2019/11/07 02:15:18;;;;;;;6;4.699999;;;;;;;2.52;100;94093.24;;;;
2019/11/07 02:16:19;;;;;;;6;4.699999;;;;;;;2.52;100;94093.24;;;;
2019/11/07 02:17:21;;;;;;;6;4.699999;;;;;;;2.52;100;94093.24;;;;
2019/11/07 02:18:22;;;;;;;6;4.699999;;;;;;;2.52;100;94093.24;;;;
2019/11/07 02:19:23;;;;;;;6;4.699999;;;;;;;2.52;100;94093.24;;;;
2019/11/07 02:20:24;;;;;;;6;4.699999;;;;;;;2.52;100;94093.24;;;;
2019/11/07 02:21:25;;;;;;;6;4.699999;;;;;;;2.52;100;94093.24;;;;
2019/11/07 02:22:26;;;;;;;6;4.699999;;;;;;;2.52;100;94093.24;;;;
2019/11/07 02:23:27;;;;;;;6;4.699999;;;;;;;2.52;100;94093.24;;;;
2019/11/07 02:24:29;;;;;;;6;4.699999;;;;;;;2.52;100;94093.24;;;;
2019/11/07 02:25:30;;;;;;;5.649999;4.5;;;;;;;2.47;100;94090.41;;;;
2019/11/07 02:26:31;;;;;;;5.649999;4.5;;;;;;;2.47;100;94090.41;;;;
2019/11/07 02:27:33;;;;;;;5.649999;4.5;;;;;;;2.47;100;94090.41;;;;
2019/11/07 02:28:34;;;;;;;5.649999;4.5;;;;;;;2.47;100;94090.41;;;;
2019/11/07 02:29:35;;;;;;;5.649999;4.5;;;;;;;2.47;100;94090.41;;;;
2019/11/07 02:30:36;;;;;;;5.649999;4.5;;;;;;;2.47;100;94090.41;;;;
2019/11/07 02:31:37;;;;;;;5.649999;4.5;;;;;;;2.47;100;94090.41;;;;
2019/11/07 02:32:38;;;;;;;5.649999;4.5;;;;;;;2.47;100;94090.41;;;;
2019/11/07 02:33:40;;;;;;;5.649999;4.5;;;;;;;2.47;100;94090.41;;;;
2019/11/07 02:34:41;;;;;;;5.649999;4.5;;;;;;;2.47;100;94090.41;;;;
2019/11/07 02:35:42;;;;;;;5.649999;4.5;;;;;;;2.47;100;94090.41;;;;
2019/11/07 02:36:43;;;;;;;5.500001;4.3;;;;;;;2.31;100;94081.61;;;;
2019/11/07 02:37:45;;;;;;;5.500001;4.3;;;;;;;2.31;100;94081.61;;;;
2019/11/07 02:38:46;;;;;;;5.500001;4.3;;;;;;;2.31;100;94081.61;;;;
2019/11/07 02:39:47;;;;;;;5.500001;4.3;;;;;;;2.31;100;94081.61;;;;
2019/11/07 02:40:48;;;;;;;5.500001;4.3;;;;;;;2.31;100;94081.61;;;;
2019/11/07 02:41:50;;;;;;;5.500001;4.3;;;;;;;2.31;100;94081.61;;;;
2019/11/07 02:42:51;;;;;;;5.500001;4.3;;;;;;;2.31;100;94081.61;;;;
2019/11/07 02:43:52;;;;;;;5.500001;4.3;;;;;;;2.31;100;94081.61;;;;
2019/11/07 02:44:53;;;;;;;5.500001;4.3;;;;;;;2.31;100;94081.61;;;;
2019/11/07 02:45:54;;;;;;;5.500001;4.3;;;;;;;2.31;100;94081.61;;;;
2019/11/07 02:46:55;;;;;;;5.149999;4.450001;;;;;;;2.1;100;94076.12;;;;
2019/11/07 02:47:57;;;;;;;5.149999;4.450001;;;;;;;2.1;100;94076.12;;;;
2019/11/07 02:48:58;;;;;;;5.149999;4.450001;;;;;;;2.1;100;94076.12;;;;
2019/11/07 02:49:59;;;;;;;5.149999;4.450001;;;;;;;2.1;100;94076.12;;;;
2019/11/07 02:51:00;;;;;;;5.149999;4.450001;;;;;;;2.1;100;94076.12;;;;
2019/11/07 02:52:01;;;;;;;5.149999;4.450001;;;;;;;2.1;100;94076.12;;;;
2019/11/07 02:53:03;;;;;;;5.149999;4.450001;;;;;;;2.1;100;94076.12;;;;
2019/11/07 02:54:04;;;;;;;5.149999;4.450001;;;;;;;2.1;100;94076.12;;;;
2019/11/07 02:55:05;;;;;;;5.149999;4.450001;;;;;;;2.1;100;94076.12;;;;
2019/11/07 02:56:06;;;;;;;5.149999;4.450001;;;;;;;2.1;100;94076.12;;;;
2019/11/07 02:57:07;;;;;;;5.149999;4.450001;;;;;;;2.1;100;94076.12;;;;
2019/11/07 02:58:09;;;;;;;5.1;4.6;;;;;;;2.03;100;94064.7;;;;
2019/11/07 02:59:10;;;;;;;5.1;4.6;;;;;;;2.03;100;94064.7;;;;
2019/11/07 03:00:11;;;;;;;5.1;4.6;;;;;;;2.03;100;94064.7;;;;
2019/11/07 03:01:12;;;;;;;5.1;4.6;;;;;;;2.03;100;94064.7;;;;
2019/11/07 03:02:13;;;;;;;5.1;4.6;;;;;;;2.03;100;94064.7;;;;
2019/11/07 03:03:15;;;;;;;5.1;4.6;;;;;;;2.03;100;94064.7;;;;
2019/11/07 03:04:16;;;;;;;5.1;4.6;;;;;;;2.03;100;94064.7;;;;
2019/11/07 03:05:18;;;;;;;5.1;4.6;;;;;;;2.03;100;94064.7;;;;
2019/11/07 03:06:19;;;;;;;5.1;4.6;;;;;;;2.03;100;94064.7;;;;
2019/11/07 03:07:20;;;;;;;5.1;4.6;;;;;;;2.03;100;94064.7;;;;
2019/11/07 03:08:21;;;;;;;5.3;4.3;;;;;;;1.95;100;94061.87;;;;
2019/11/07 03:09:22;;;;;;;5.3;4.3;;;;;;;1.95;100;94061.87;;;;
2019/11/07 03:10:23;;;;;;;5.3;4.3;;;;;;;1.95;100;94061.87;;;;
2019/11/07 03:11:25;;;;;;;5.3;4.3;;;;;;;1.95;100;94061.87;;;;
2019/11/07 03:12:26;;;;;;;5.3;4.3;;;;;;;1.95;100;94061.87;;;;
2019/11/07 03:13:27;;;;;;;5.3;4.3;;;;;;;1.95;100;94061.87;;;;
2019/11/07 03:14:28;;;;;;;5.3;4.3;;;;;;;1.95;100;94061.87;;;;
2019/11/07 03:15:30;;;;;;;5.3;4.3;;;;;;;1.95;100;94061.87;;;;
2019/11/07 03:16:31;;;;;;;5.3;4.3;;;;;;;1.95;100;94061.87;;;;
2019/11/07 03:17:32;;;;;;;5.3;4.3;;;;;;;1.95;100;94061.87;;;;
2019/11/07 03:18:33;;;;;;;4.9;4.050001;;;;;;;1.95;100;94053.38;;;;
2019/11/07 03:19:34;;;;;;;4.9;4.050001;;;;;;;1.95;100;94053.38;;;;
2019/11/07 03:20:35;;;;;;;4.9;4.050001;;;;;;;1.95;100;94053.38;;;;
2019/11/07 03:21:36;;;;;;;4.9;4.050001;;;;;;;1.95;100;94053.38;;;;
2019/11/07 03:22:38;;;;;;;4.9;4.050001;;;;;;;1.95;100;94053.38;;;;
2019/11/07 03:23:39;;;;;;;4.9;4.050001;;;;;;;1.95;100;94053.38;;;;
2019/11/07 03:24:40;;;;;;;4.9;4.050001;;;;;;;1.95;100;94053.38;;;;
2019/11/07 03:25:41;;;;;;;4.9;4.050001;;;;;;;1.95;100;94053.38;;;;
2019/11/07 03:26:43;;;;;;;4.9;4.050001;;;;;;;1.95;100;94053.38;;;;
2019/11/07 03:27:44;;;;;;;4.9;4.050001;;;;;;;1.95;100;94053.38;;;;
2019/11/07 03:28:45;;;;;;;4.9;4.050001;;;;;;;1.95;100;94053.38;;;;
2019/11/07 03:29:46;;;;;;;5.400001;3.75;;;;;;;1.91;100;94057.99;;;;
2019/11/07 03:30:47;;;;;;;5.400001;3.75;;;;;;;1.91;100;94057.99;;;;
2019/11/07 03:31:48;;;;;;;5.400001;3.75;;;;;;;1.91;100;94057.99;;;;
2019/11/07 03:32:49;;;;;;;5.400001;3.75;;;;;;;1.91;100;94057.99;;;;
2019/11/07 03:33:51;;;;;;;5.400001;3.75;;;;;;;1.91;100;94057.99;;;;
2019/11/07 03:34:52;;;;;;;5.400001;3.75;;;;;;;1.91;100;94057.99;;;;
2019/11/07 03:35:53;;;;;;;5.400001;3.75;;;;;;;1.91;100;94057.99;;;;
2019/11/07 03:36:54;;;;;;;5.400001;3.75;;;;;;;1.91;100;94057.99;;;;
2019/11/07 03:37:55;;;;;;;5.400001;3.75;;;;;;;1.91;100;94057.99;;;;
2019/11/07 03:38:56;;;;;;;5.400001;3.75;;;;;;;1.91;100;94057.99;;;;
2019/11/07 03:39:58;;;;;;;4;3.6;;;;;;;1.87;100;94040.84;;;;
2019/11/07 03:40:59;;;;;;;4;3.6;;;;;;;1.87;100;94040.84;;;;
2019/11/07 03:42:00;;;;;;;4;3.6;;;;;;;1.87;100;94040.84;;;;
2019/11/07 03:43:01;;;;;;;4;3.6;;;;;;;1.87;100;94040.84;;;;
2019/11/07 03:44:02;;;;;;;4;3.6;;;;;;;1.87;100;94040.84;;;;
2019/11/07 03:45:03;;;;;;;4;3.6;;;;;;;1.87;100;94040.84;;;;
2019/11/07 03:46:05;;;;;;;4;3.6;;;;;;;1.87;100;94040.84;;;;
2019/11/07 03:47:35;;;;;;;4;3.6;;;;;;;1.87;100;94040.84;;;;
2019/11/07 03:48:51;;;;;;;4;3.6;;;;;;;1.87;100;94040.84;;;;
2019/11/07 03:50:02;;;;;;;4;3.6;;;;;;;1.87;100;94040.84;;;;
2019/11/07 03:51:07;;;;;;;4;3.6;;;;;;;1.73;100;94033.56;;;;
2019/11/07 03:52:16;;;;;;;4;3.6;;;;;;;1.73;100;94033.56;;;;
2019/11/07 03:54:40;;;;;;;4;3.6;;;;;;;1.73;100;94033.56;;;;
2019/11/07 03:55:56;;;;;;;4;3.6;;;;;;;1.73;100;94033.56;;;;
2019/11/07 03:57:21;;;;;;;4;3.6;;;;;;;1.73;100;94033.56;;;;
2019/11/07 03:58:25;;;;;;;4;3.6;;;;;;;1.73;100;94033.56;;;;
2019/11/07 03:59:49;;;;;;;4;3.6;;;;;;;1.73;100;94033.56;;;;
2019/11/07 04:01:04;;;;;;;4.1;3.7;;;;;;;1.63;100;94025.61;;;;
2019/11/07 04:02:14;;;;;;;4.1;3.7;;;;;;;1.63;100;94025.61;;;;
2019/11/07 04:03:28;;;;;;;4.1;3.7;;;;;;;1.63;100;94025.61;;;;
2019/11/07 04:04:34;;;;;;;4.1;3.7;;;;;;;1.63;100;94025.61;;;;
2019/11/07 04:05:55;;;;;;;4.1;3.7;;;;;;;1.63;100;94025.61;;;;
2019/11/07 04:07:01;;;;;;;4.1;3.7;;;;;;;1.63;100;94025.61;;;;
2019/11/07 04:08:05;;;;;;;4.1;3.7;;;;;;;1.63;100;94025.61;;;;
2019/11/07 04:09:12;;;;;;;4.1;3.7;;;;;;;1.63;100;94025.61;;;;
2019/11/07 04:10:13;;;;;;;4.1;3.7;;;;;;;1.63;100;94025.61;;;;
2019/11/07 04:11:16;;;;;;;4.1;3.7;;;;;;;1.63;100;94025.61;;;;
2019/11/07 04:12:17;;;;;;;4.4;3.9;;;;;;;1.48;100;94022.4;;;;
2019/11/07 04:13:18;;;;;;;4.4;3.9;;;;;;;1.48;100;94022.4;;;;
2019/11/07 04:14:20;;;;;;;4.4;3.9;;;;;;;1.48;100;94022.4;;;;
2019/11/07 04:15:21;;;;;;;4.4;3.9;;;;;;;1.48;100;94022.4;;;;
2019/11/07 04:16:22;;;;;;;4.4;3.9;;;;;;;1.48;100;94022.4;;;;
2019/11/07 04:17:23;;;;;;;4.4;3.9;;;;;;;1.48;100;94022.4;;;;
2019/11/07 04:18:24;;;;;;;4.4;3.9;;;;;;;1.48;100;94022.4;;;;
2019/11/07 04:19:25;;;;;;;4.4;3.9;;;;;;;1.48;100;94022.4;;;;
2019/11/07 04:20:27;;;;;;;4.4;3.9;;;;;;;1.48;100;94022.4;;;;
2019/11/07 04:21:28;;;;;;;4.4;3.9;;;;;;;1.48;100;94022.4;;;;
2019/11/07 04:22:29;;;;;;;4.199999;3.75;;;;;;;1.45;100;94010.77;;;;
2019/11/07 04:23:30;;;;;;;4.199999;3.75;;;;;;;1.45;100;94010.77;;;;
2019/11/07 04:24:31;;;;;;;4.199999;3.75;;;;;;;1.45;100;94010.77;;;;
2019/11/07 04:25:32;;;;;;;4.199999;3.75;;;;;;;1.45;100;94010.77;;;;
2019/11/07 04:26:33;;;;;;;4.199999;3.75;;;;;;;1.45;100;94010.77;;;;
2019/11/07 04:27:35;;;;;;;4.199999;3.75;;;;;;;1.45;100;94010.77;;;;
2019/11/07 04:28:36;;;;;;;4.199999;3.75;;;;;;;1.45;100;94010.77;;;;
2019/11/07 04:29:37;;;;;;;4.199999;3.75;;;;;;;1.45;100;94010.77;;;;
2019/11/07 04:30:38;;;;;;;4.199999;3.75;;;;;;;1.45;100;94010.77;;;;
2019/11/07 04:31:40;;;;;;;4.199999;3.75;;;;;;;1.45;100;94010.77;;;;
2019/11/07 04:32:44;;;;;;;4.55;4.15;;;;;;;1.34;100;94009.28;;;;
2019/11/07 04:33:48;;;;;;;4.55;4.15;;;;;;;1.34;100;94009.28;;;;
2019/11/07 04:34:51;;;;;;;4.55;4.15;;;;;;;1.34;100;94009.28;;;;
2019/11/07 04:35:54;;;;;;;4.55;4.15;;;;;;;1.34;100;94009.28;;;;
2019/11/07 04:36:56;;;;;;;4.55;4.15;;;;;;;1.34;100;94009.28;;;;
2019/11/07 04:37:58;;;;;;;4.55;4.15;;;;;;;1.34;100;94009.28;;;;
2019/11/07 04:39:02;;;;;;;4.55;4.15;;;;;;;1.34;100;94009.28;;;;
2019/11/07 04:40:05;;;;;;;4.55;4.15;;;;;;;1.34;100;94009.28;;;;
2019/11/07 04:41:06;;;;;;;4.55;4.15;;;;;;;1.34;100;94009.28;;;;
2019/11/07 04:42:08;;;;;;;4.55;4.15;;;;;;;1.34;100;94009.28;;;;
2019/11/07 04:43:09;;;;;;;4.55;4.15;;;;;;;1.34;100;94009.28;;;;
2019/11/07 04:44:13;;;;;;;4.199999;3.8;;;;;;;1.27;100;94004;;;;
2019/11/07 04:45:15;;;;;;;4.199999;3.8;;;;;;;1.27;100;94004;;;;
2019/11/07 04:46:16;;;;;;;4.199999;3.8;;;;;;;1.27;100;94004;;;;
2019/11/07 04:47:17;;;;;;;4.199999;3.8;;;;;;;1.27;100;94004;;;;
2019/11/07 04:48:18;;;;;;;4.199999;3.8;;;;;;;1.27;100;94004;;;;
2019/11/07 04:49:19;;;;;;;4.199999;3.8;;;;;;;1.27;100;94004;;;;
2019/11/07 04:50:21;;;;;;;4.199999;3.8;;;;;;;1.27;100;94004;;;;
2019/11/07 04:51:22;;;;;;;4.199999;3.8;;;;;;;1.27;100;94004;;;;
2019/11/07 04:52:23;;;;;;;4.199999;3.8;;;;;;;1.27;100;94004;;;;
2019/11/07 04:53:24;;;;;;;4.199999;3.8;;;;;;;1.27;100;94004;;;;
2019/11/07 04:54:25;;;;;;;6.8;4.149999;;;;;;;1.12;100;94006.59;;;;
2019/11/07 04:55:27;;;;;;;6.8;4.149999;;;;;;;1.12;100;94006.59;;;;
2019/11/07 04:56:28;;;;;;;6.8;4.149999;;;;;;;1.12;100;94006.59;;;;
2019/11/07 04:57:29;;;;;;;6.8;4.149999;;;;;;;1.12;100;94006.59;;;;
2019/11/07 04:58:30;;;;;;;6.8;4.149999;;;;;;;1.12;100;94006.59;;;;
2019/11/07 04:59:31;;;;;;;6.8;4.149999;;;;;;;1.12;100;94006.59;;;;
2019/11/07 05:00:32;;;;;;;6.8;4.149999;;;;;;;1.12;100;94006.59;;;;
2019/11/07 05:01:33;;;;;;;6.8;4.149999;;;;;;;1.12;100;94006.59;;;;
2019/11/07 05:02:35;;;;;;;6.8;4.149999;;;;;;;1.12;100;94006.59;;;;
2019/11/07 05:03:36;;;;;;;6.8;4.149999;;;;;;;1.12;100;94006.59;;;;
2019/11/07 05:04:37;;;;;;;4.1;3.7;;;;;;;0.97;100;94004.19;;;;
2019/11/07 05:05:38;;;;;;;4.1;3.7;;;;;;;0.97;100;94004.19;;;;
2019/11/07 05:06:40;;;;;;;4.1;3.7;;;;;;;0.97;100;94004.19;;;;
2019/11/07 05:07:41;;;;;;;4.1;3.7;;;;;;;0.97;100;94004.19;;;;
2019/11/07 05:08:42;;;;;;;4.1;3.7;;;;;;;0.97;100;94004.19;;;;
2019/11/07 05:09:43;;;;;;;4.1;3.7;;;;;;;0.97;100;94004.19;;;;
2019/11/07 05:10:44;;;;;;;4.1;3.7;;;;;;;0.97;100;94004.19;;;;
2019/11/07 05:11:46;;;;;;;4.1;3.7;;;;;;;0.97;100;94004.19;;;;
2019/11/07 05:12:47;;;;;;;4.1;3.7;;;;;;;0.97;100;94004.19;;;;
2019/11/07 05:13:48;;;;;;;4.1;3.7;;;;;;;0.97;100;94004.19;;;;
2019/11/07 05:14:49;;;;;;;4.1;3.7;;;;;;;0.97;100;94004.19;;;;
2019/11/07 05:15:50;;;;;;;4.45;3.85;;;;;;;0.85;100;93996.56;;;;
2019/11/07 05:16:52;;;;;;;4.45;3.85;;;;;;;0.85;100;93996.56;;;;
2019/11/07 05:17:53;;;;;;;4.45;3.85;;;;;;;0.85;100;93996.56;;;;
2019/11/07 05:18:54;;;;;;;4.45;3.85;;;;;;;0.85;100;93996.56;;;;
2019/11/07 05:19:56;;;;;;;4.45;3.85;;;;;;;0.85;100;93996.56;;;;
2019/11/07 05:20:57;;;;;;;4.45;3.85;;;;;;;0.85;100;93996.56;;;;
2019/11/07 05:21:58;;;;;;;4.45;3.85;;;;;;;0.85;100;93996.56;;;;
2019/11/07 05:22:59;;;;;;;4.45;3.85;;;;;;;0.85;100;93996.56;;;;
2019/11/07 05:24:00;;;;;;;4.45;3.85;;;;;;;0.85;100;93996.56;;;;
2019/11/07 05:25:01;;;;;;;4.45;3.85;;;;;;;0.85;100;93996.56;;;;
2019/11/07 05:26:03;;;;;;;4.35;3.95;;;;;;;0.78;100;93993.11;;;;
2019/11/07 05:27:04;;;;;;;4.35;3.95;;;;;;;0.78;100;93993.11;;;;
2019/11/07 05:28:05;;;;;;;4.35;3.95;;;;;;;0.78;100;93993.11;;;;
2019/11/07 05:29:06;;;;;;;4.35;3.95;;;;;;;0.78;100;93993.11;;;;
2019/11/07 05:30:07;;;;;;;4.35;3.95;;;;;;;0.78;100;93993.11;;;;
2019/11/07 05:31:08;;;;;;;4.35;3.95;;;;;;;0.78;100;93993.11;;;;
2019/11/07 05:32:46;;;;;;;4.35;3.95;;;;;;;0.78;100;93993.11;;;;
2019/11/07 05:33:55;;;;;;;4.35;3.95;;;;;;;0.78;100;93993.11;;;;
2019/11/07 05:34:57;;;;;;;4.35;3.95;;;;;;;0.78;100;93993.11;;;;
2019/11/07 05:35:58;;;;;;;4.35;3.95;;;;;;;0.78;100;93993.11;;;;
2019/11/07 05:36:59;;;;;;;4.95;4.3;;;;;;;0.66;100;94001.92;;;;
2019/11/07 05:38:00;;;;;;;4.95;4.3;;;;;;;0.66;100;94001.92;;;;
2019/11/07 05:39:01;;;;;;;4.95;4.3;;;;;;;0.66;100;94001.92;;;;
2019/11/07 05:40:05;;;;;;;4.95;4.3;;;;;;;0.66;100;94001.92;;;;
2019/11/07 05:41:06;;;;;;;4.95;4.3;;;;;;;0.66;100;94001.92;;;;
2019/11/07 05:42:07;;;;;;;4.95;4.3;;;;;;;0.66;100;94001.92;;;;
2019/11/07 05:43:08;;;;;;;4.95;4.3;;;;;;;0.66;100;94001.92;;;;
2019/11/07 05:44:09;;;;;;;4.95;4.3;;;;;;;0.66;100;94001.92;;;;
2019/11/07 05:45:10;;;;;;;4.95;4.3;;;;;;;0.66;100;94001.92;;;;
2019/11/07 05:46:11;;;;;;;4.95;4.3;;;;;;;0.66;100;94001.92;;;;
2019/11/07 05:47:13;;;;;;;4.950001;3.95;;;;;;;0.59;100;93990;;;;
2019/11/07 05:48:14;;;;;;;4.950001;3.95;;;;;;;0.59;100;93990;;;;
2019/11/07 05:49:15;;;;;;;4.950001;3.95;;;;;;;0.59;100;93990;;;;
2019/11/07 05:50:16;;;;;;;4.950001;3.95;;;;;;;0.59;100;93990;;;;
2019/11/07 05:51:17;;;;;;;4.950001;3.95;;;;;;;0.59;100;93990;;;;
2019/11/07 05:52:18;;;;;;;4.950001;3.95;;;;;;;0.59;100;93990;;;;
2019/11/07 05:53:19;;;;;;;4.950001;3.95;;;;;;;0.59;100;93990;;;;
2019/11/07 05:54:21;;;;;;;4.950001;3.95;;;;;;;0.59;100;93990;;;;
2019/11/07 05:55:22;;;;;;;4.950001;3.95;;;;;;;0.59;100;93990;;;;
2019/11/07 05:56:23;;;;;;;4.950001;3.95;;;;;;;0.59;100;93990;;;;
2019/11/07 05:57:24;;;;;;;4.950001;3.95;;;;;;;0.59;100;93990;;;;
2019/11/07 05:58:25;;;;;;;5.45;4.4;;;;;;;0.46;100;93979.8;;;;
2019/11/07 05:59:26;;;;;;;5.45;4.4;;;;;;;0.46;100;93979.8;;;;
2019/11/07 06:00:27;;;;;;;5.45;4.4;;;;;;;0.46;100;93979.8;;;;
2019/11/07 06:01:28;;;;;;;5.45;4.4;;;;;;;0.46;100;93979.8;;;;
2019/11/07 06:02:30;;;;;;;5.45;4.4;;;;;;;0.46;100;93979.8;;;;
2019/11/07 06:03:31;;;;;;;5.45;4.4;;;;;;;0.46;100;93979.8;;;;
2019/11/07 06:04:32;;;;;;;5.45;4.4;;;;;;;0.46;100;93979.8;;;;
2019/11/07 06:05:33;;;;;;;5.45;4.4;;;;;;;0.46;100;93979.8;;;;
2019/11/07 06:06:35;;;;;;;5.45;4.4;;;;;;;0.46;100;93979.8;;;;
2019/11/07 06:07:36;;;;;;;5.45;4.4;;;;;;;0.46;100;93979.8;;;;
2019/11/07 06:08:37;;;;;;;5.05;4.55;;;;;;;0.46;100;93985.52;;;;
2019/11/07 06:09:38;;;;;;;5.05;4.55;;;;;;;0.46;100;93985.52;;;;
2019/11/07 06:10:39;;;;;;;5.05;4.55;;;;;;;0.46;100;93985.52;;;;
2019/11/07 06:11:40;;;;;;;5.05;4.55;;;;;;;0.46;100;93985.52;;;;
2019/11/07 06:12:41;;;;;;;5.05;4.55;;;;;;;0.46;100;93985.52;;;;
2019/11/07 06:13:42;;;;;;;5.05;4.55;;;;;;;0.46;100;93985.52;;;;
2019/11/07 06:14:44;;;;;;;5.05;4.55;;;;;;;0.46;100;93985.52;;;;
2019/11/07 06:15:45;;;;;;;5.05;4.55;;;;;;;0.46;100;93985.52;;;;
2019/11/07 06:16:46;;;;;;;5.05;4.55;;;;;;;0.46;100;93985.52;;;;
2019/11/07 06:17:47;;;;;;;5.05;4.55;;;;;;;0.46;100;93985.52;;;;